sensor_id;sensor_type;location;lat;lon;timestamp;P1;durP1;ratioP1;P2;durP2;ratioP2
12127;SDS011;6127;57.702;11.904;2023-07-31T00:02:24;4.72;;;3.03;;
12127;SDS011;6127;57.702;11.904;2023-07-31T00:04:50;4.82;;;2.88;;
12127;SDS011;6127;57.702;11.904;2023-07-31T00:07:15;4.00;;;2.90;;
12127;SDS011;6127;57.702;11.904;2023-07-31T00:09:41;5.78;;;4.57;;
12127;SDS011;6127;57.702;11.904;2023-07-31T00:12:08;8.43;;;5.95;;
12127;SDS011;6127;57.702;11.904;2023-07-31T00:14:34;10.65;;;4.85;;
12127;SDS011;6127;57.702;11.904;2023-07-31T00:16:59;8.82;;;4.20;;
12127;SDS011;6127;57.702;11.904;2023-07-31T00:19:25;6.03;;;3.95;;
12127;SDS011;6127;57.702;11.904;2023-07-31T00:21:51;9.30;;;7.03;;
12127;SDS011;6127;57.702;11.904;2023-07-31T00:24:17;9.45;;;3.88;;
12127;SDS011;6127;57.702;11.904;2023-07-31T00:26:43;9.70;;;3.58;;
12127;SDS011;6127;57.702;11.904;2023-07-31T00:29:09;8.07;;;3.47;;
12127;SDS011;6127;57.702;11.904;2023-07-31T00:31:35;14.35;;;11.10;;
12127;SDS011;6127;57.702;11.904;2023-07-31T00:34:01;7.70;;;4.72;;
12127;SDS011;6127;57.702;11.904;2023-07-31T00:36:27;8.93;;;3.40;;
12127;SDS011;6127;57.702;11.904;2023-07-31T00:38:53;10.60;;;7.82;;
12127;SDS011;6127;57.702;11.904;2023-07-31T00:41:19;6.88;;;3.55;;
12127;SDS011;6127;57.702;11.904;2023-07-31T00:43:45;17.48;;;15.90;;
12127;SDS011;6127;57.702;11.904;2023-07-31T00:46:11;5.35;;;3.35;;
12127;SDS011;6127;57.702;11.904;2023-07-31T00:48:37;8.27;;;3.60;;
12127;SDS011;6127;57.702;11.904;2023-07-31T00:51:03;4.95;;;3.28;;
12127;SDS011;6127;57.702;11.904;2023-07-31T00:53:29;5.15;;;3.25;;
12127;SDS011;6127;57.702;11.904;2023-07-31T00:55:55;6.10;;;3.00;;
12127;SDS011;6127;57.702;11.904;2023-07-31T00:58:22;4.88;;;2.67;;
12127;SDS011;6127;57.702;11.904;2023-07-31T01:00:48;4.75;;;2.85;;
12127;SDS011;6127;57.702;11.904;2023-07-31T01:03:15;18.17;;;11.07;;
12127;SDS011;6127;57.702;11.904;2023-07-31T01:06:00;5.50;;;3.17;;
12127;SDS011;6127;57.702;11.904;2023-07-31T01:08:54;8.65;;;3.00;;
12127;SDS011;6127;57.702;11.904;2023-07-31T01:11:21;6.78;;;3.78;;
12127;SDS011;6127;57.702;11.904;2023-07-31T01:13:49;5.72;;;2.65;;
12127;SDS011;6127;57.702;11.904;2023-07-31T01:16:15;6.65;;;2.85;;
12127;SDS011;6127;57.702;11.904;2023-07-31T01:18:41;8.45;;;2.78;;
12127;SDS011;6127;57.702;11.904;2023-07-31T01:26:30;4.70;;;3.42;;
12127;SDS011;6127;57.702;11.904;2023-07-31T01:32:01;6.18;;;2.88;;
12127;SDS011;6127;57.702;11.904;2023-07-31T01:34:28;4.57;;;2.90;;
12127;SDS011;6127;57.702;11.904;2023-07-31T01:36:55;5.75;;;3.20;;
12127;SDS011;6127;57.702;11.904;2023-07-31T01:39:22;5.03;;;2.95;;
12127;SDS011;6127;57.702;11.904;2023-07-31T01:41:48;7.32;;;3.30;;
12127;SDS011;6127;57.702;11.904;2023-07-31T01:44:14;4.75;;;3.20;;
12127;SDS011;6127;57.702;11.904;2023-07-31T01:46:40;13.98;;;3.70;;
12127;SDS011;6127;57.702;11.904;2023-07-31T01:49:06;4.55;;;2.90;;
12127;SDS011;6127;57.702;11.904;2023-07-31T01:51:32;5.07;;;3.25;;
12127;SDS011;6127;57.702;11.904;2023-07-31T01:53:59;4.63;;;3.30;;
12127;SDS011;6127;57.702;11.904;2023-07-31T01:56:25;6.45;;;3.00;;
12127;SDS011;6127;57.702;11.904;2023-07-31T01:58:51;7.13;;;2.87;;
12127;SDS011;6127;57.702;11.904;2023-07-31T02:01:17;3.80;;;2.83;;
12127;SDS011;6127;57.702;11.904;2023-07-31T02:03:43;5.70;;;3.10;;
12127;SDS011;6127;57.702;11.904;2023-07-31T02:06:09;3.42;;;2.70;;
12127;SDS011;6127;57.702;11.904;2023-07-31T02:08:35;4.55;;;2.92;;
12127;SDS011;6127;57.702;11.904;2023-07-31T02:11:01;4.10;;;3.63;;
12127;SDS011;6127;57.702;11.904;2023-07-31T02:13:27;11.95;;;3.95;;
12127;SDS011;6127;57.702;11.904;2023-07-31T02:15:53;7.80;;;3.30;;
12127;SDS011;6127;57.702;11.904;2023-07-31T02:18:19;7.57;;;3.33;;
12127;SDS011;6127;57.702;11.904;2023-07-31T02:20:50;6.75;;;3.30;;
12127;SDS011;6127;57.702;11.904;2023-07-31T02:23:16;7.93;;;3.20;;
12127;SDS011;6127;57.702;11.904;2023-07-31T02:25:43;6.68;;;3.17;;
12127;SDS011;6127;57.702;11.904;2023-07-31T02:28:09;6.45;;;2.95;;
12127;SDS011;6127;57.702;11.904;2023-07-31T02:30:35;6.28;;;3.30;;
12127;SDS011;6127;57.702;11.904;2023-07-31T02:33:01;5.05;;;3.17;;
12127;SDS011;6127;57.702;11.904;2023-07-31T02:35:27;9.23;;;4.05;;
12127;SDS011;6127;57.702;11.904;2023-07-31T02:37:53;9.48;;;3.63;;
12127;SDS011;6127;57.702;11.904;2023-07-31T02:40:19;6.03;;;3.45;;
12127;SDS011;6127;57.702;11.904;2023-07-31T02:42:45;10.30;;;4.25;;
12127;SDS011;6127;57.702;11.904;2023-07-31T02:45:11;10.30;;;3.95;;
12127;SDS011;6127;57.702;11.904;2023-07-31T02:47:37;5.63;;;3.63;;
12127;SDS011;6127;57.702;11.904;2023-07-31T02:50:03;8.80;;;4.88;;
12127;SDS011;6127;57.702;11.904;2023-07-31T02:52:29;6.47;;;3.92;;
12127;SDS011;6127;57.702;11.904;2023-07-31T02:54:55;8.70;;;4.60;;
12127;SDS011;6127;57.702;11.904;2023-07-31T02:57:21;5.80;;;3.50;;
12127;SDS011;6127;57.702;11.904;2023-07-31T02:59:47;6.88;;;5.93;;
12127;SDS011;6127;57.702;11.904;2023-07-31T03:02:13;8.27;;;4.10;;
12127;SDS011;6127;57.702;11.904;2023-07-31T03:04:39;7.70;;;3.60;;
12127;SDS011;6127;57.702;11.904;2023-07-31T03:07:05;11.05;;;4.00;;
12127;SDS011;6127;57.702;11.904;2023-07-31T03:09:31;7.75;;;4.20;;
12127;SDS011;6127;57.702;11.904;2023-07-31T03:11:57;6.72;;;3.97;;
12127;SDS011;6127;57.702;11.904;2023-07-31T03:14:23;8.73;;;3.67;;
12127;SDS011;6127;57.702;11.904;2023-07-31T03:16:51;10.23;;;3.80;;
12127;SDS011;6127;57.702;11.904;2023-07-31T03:19:17;6.93;;;3.88;;
12127;SDS011;6127;57.702;11.904;2023-07-31T03:21:43;11.20;;;4.45;;
12127;SDS011;6127;57.702;11.904;2023-07-31T03:24:09;17.40;;;4.07;;
12127;SDS011;6127;57.702;11.904;2023-07-31T03:26:37;5.53;;;4.03;;
12127;SDS011;6127;57.702;11.904;2023-07-31T03:29:03;11.02;;;4.00;;
12127;SDS011;6127;57.702;11.904;2023-07-31T03:31:29;12.70;;;5.93;;
12127;SDS011;6127;57.702;11.904;2023-07-31T03:33:55;6.32;;;5.20;;
12127;SDS011;6127;57.702;11.904;2023-07-31T03:36:21;9.30;;;3.92;;
12127;SDS011;6127;57.702;11.904;2023-07-31T03:38:47;6.53;;;3.78;;
12127;SDS011;6127;57.702;11.904;2023-07-31T03:41:13;10.07;;;4.18;;
12127;SDS011;6127;57.702;11.904;2023-07-31T03:43:39;18.52;;;14.77;;
12127;SDS011;6127;57.702;11.904;2023-07-31T03:46:05;10.73;;;4.70;;
12127;SDS011;6127;57.702;11.904;2023-07-31T03:48:31;7.82;;;4.05;;
12127;SDS011;6127;57.702;11.904;2023-07-31T03:50:57;10.02;;;6.47;;
12127;SDS011;6127;57.702;11.904;2023-07-31T03:53:23;24.70;;;13.98;;
12127;SDS011;6127;57.702;11.904;2023-07-31T03:55:49;11.95;;;6.97;;
12127;SDS011;6127;57.702;11.904;2023-07-31T03:58:15;14.15;;;4.13;;
12127;SDS011;6127;57.702;11.904;2023-07-31T04:00:41;9.82;;;3.75;;
12127;SDS011;6127;57.702;11.904;2023-07-31T04:03:07;5.78;;;3.67;;
12127;SDS011;6127;57.702;11.904;2023-07-31T04:05:33;11.48;;;4.05;;
12127;SDS011;6127;57.702;11.904;2023-07-31T04:07:59;13.13;;;7.13;;
12127;SDS011;6127;57.702;11.904;2023-07-31T04:10:25;11.65;;;4.05;;
12127;SDS011;6127;57.702;11.904;2023-07-31T04:12:51;10.40;;;7.07;;
12127;SDS011;6127;57.702;11.904;2023-07-31T04:15:16;12.50;;;8.15;;
12127;SDS011;6127;57.702;11.904;2023-07-31T04:17:42;13.65;;;4.68;;
12127;SDS011;6127;57.702;11.904;2023-07-31T04:20:09;11.98;;;4.13;;
12127;SDS011;6127;57.702;11.904;2023-07-31T04:22:35;11.70;;;3.53;;
12127;SDS011;6127;57.702;11.904;2023-07-31T04:25:01;10.00;;;4.22;;
12127;SDS011;6127;57.702;11.904;2023-07-31T04:27:27;9.45;;;4.70;;
12127;SDS011;6127;57.702;11.904;2023-07-31T04:29:53;19.65;;;4.90;;
12127;SDS011;6127;57.702;11.904;2023-07-31T04:32:19;16.55;;;5.68;;
12127;SDS011;6127;57.702;11.904;2023-07-31T04:34:45;18.42;;;4.97;;
12127;SDS011;6127;57.702;11.904;2023-07-31T04:37:11;13.55;;;5.07;;
12127;SDS011;6127;57.702;11.904;2023-07-31T04:39:39;18.38;;;5.95;;
12127;SDS011;6127;57.702;11.904;2023-07-31T04:42:05;7.70;;;4.40;;
12127;SDS011;6127;57.702;11.904;2023-07-31T04:44:31;12.60;;;5.07;;
12127;SDS011;6127;57.702;11.904;2023-07-31T04:46:57;11.15;;;4.97;;
12127;SDS011;6127;57.702;11.904;2023-07-31T04:49:23;10.25;;;4.25;;
12127;SDS011;6127;57.702;11.904;2023-07-31T04:51:49;11.30;;;4.22;;
12127;SDS011;6127;57.702;11.904;2023-07-31T04:54:15;9.38;;;3.95;;
12127;SDS011;6127;57.702;11.904;2023-07-31T04:56:41;9.88;;;4.30;;
12127;SDS011;6127;57.702;11.904;2023-07-31T04:59:07;14.30;;;5.00;;
12127;SDS011;6127;57.702;11.904;2023-07-31T05:01:32;11.10;;;3.88;;
12127;SDS011;6127;57.702;11.904;2023-07-31T05:03:58;15.50;;;4.05;;
12127;SDS011;6127;57.702;11.904;2023-07-31T05:06:24;13.05;;;3.83;;
12127;SDS011;6127;57.702;11.904;2023-07-31T05:08:50;11.02;;;4.05;;
12127;SDS011;6127;57.702;11.904;2023-07-31T05:11:16;10.93;;;3.85;;
12127;SDS011;6127;57.702;11.904;2023-07-31T05:13:42;11.50;;;4.05;;
12127;SDS011;6127;57.702;11.904;2023-07-31T05:16:08;11.30;;;4.10;;
12127;SDS011;6127;57.702;11.904;2023-07-31T05:18:34;12.32;;;5.03;;
12127;SDS011;6127;57.702;11.904;2023-07-31T05:21:00;8.90;;;3.92;;
12127;SDS011;6127;57.702;11.904;2023-07-31T05:23:27;17.27;;;4.68;;
12127;SDS011;6127;57.702;11.904;2023-07-31T05:25:53;8.27;;;3.47;;
12127;SDS011;6127;57.702;11.904;2023-07-31T05:28:21;9.43;;;3.75;;
12127;SDS011;6127;57.702;11.904;2023-07-31T05:30:47;7.30;;;3.88;;
12127;SDS011;6127;57.702;11.904;2023-07-31T05:33:13;6.60;;;3.88;;
12127;SDS011;6127;57.702;11.904;2023-07-31T05:35:39;13.93;;;4.13;;
12127;SDS011;6127;57.702;11.904;2023-07-31T05:38:05;7.72;;;4.22;;
12127;SDS011;6127;57.702;11.904;2023-07-31T05:40:32;15.02;;;4.53;;
12127;SDS011;6127;57.702;11.904;2023-07-31T05:42:58;14.57;;;5.63;;
12127;SDS011;6127;57.702;11.904;2023-07-31T05:45:25;16.13;;;4.43;;
12127;SDS011;6127;57.702;11.904;2023-07-31T05:47:51;20.45;;;4.88;;
12127;SDS011;6127;57.702;11.904;2023-07-31T05:50:17;8.20;;;4.40;;
12127;SDS011;6127;57.702;11.904;2023-07-31T05:52:43;11.15;;;5.55;;
12127;SDS011;6127;57.702;11.904;2023-07-31T05:55:09;13.95;;;4.00;;
12127;SDS011;6127;57.702;11.904;2023-07-31T05:57:35;13.73;;;4.10;;
12127;SDS011;6127;57.702;11.904;2023-07-31T06:00:02;9.98;;;3.45;;
12127;SDS011;6127;57.702;11.904;2023-07-31T06:02:28;13.77;;;3.38;;
12127;SDS011;6127;57.702;11.904;2023-07-31T06:04:57;9.18;;;3.38;;
12127;SDS011;6127;57.702;11.904;2023-07-31T06:07:23;12.95;;;3.90;;
12127;SDS011;6127;57.702;11.904;2023-07-31T06:09:49;11.65;;;3.80;;
12127;SDS011;6127;57.702;11.904;2023-07-31T06:12:15;12.10;;;4.25;;
12127;SDS011;6127;57.702;11.904;2023-07-31T06:14:43;5.57;;;2.85;;
12127;SDS011;6127;57.702;11.904;2023-07-31T06:17:09;14.98;;;4.32;;
12127;SDS011;6127;57.702;11.904;2023-07-31T06:19:35;9.45;;;3.53;;
12127;SDS011;6127;57.702;11.904;2023-07-31T06:22:01;3.13;;;1.85;;
12127;SDS011;6127;57.702;11.904;2023-07-31T06:24:28;8.88;;;4.43;;
12127;SDS011;6127;57.702;11.904;2023-07-31T06:26:54;11.88;;;4.20;;
12127;SDS011;6127;57.702;11.904;2023-07-31T06:29:22;12.75;;;4.95;;
12127;SDS011;6127;57.702;11.904;2023-07-31T06:31:48;13.13;;;4.40;;
12127;SDS011;6127;57.702;11.904;2023-07-31T06:34:14;12.07;;;3.42;;
12127;SDS011;6127;57.702;11.904;2023-07-31T06:36:40;14.95;;;3.63;;
12127;SDS011;6127;57.702;11.904;2023-07-31T06:39:06;11.32;;;4.20;;
12127;SDS011;6127;57.702;11.904;2023-07-31T06:41:32;7.65;;;2.90;;
12127;SDS011;6127;57.702;11.904;2023-07-31T06:43:58;12.75;;;3.80;;
12127;SDS011;6127;57.702;11.904;2023-07-31T06:46:24;8.48;;;4.57;;
12127;SDS011;6127;57.702;11.904;2023-07-31T06:48:50;9.35;;;3.00;;
12127;SDS011;6127;57.702;11.904;2023-07-31T06:51:16;10.57;;;3.22;;
12127;SDS011;6127;57.702;11.904;2023-07-31T06:53:42;13.48;;;4.93;;
12127;SDS011;6127;57.702;11.904;2023-07-31T06:56:10;12.82;;;4.50;;
12127;SDS011;6127;57.702;11.904;2023-07-31T06:58:36;15.07;;;7.13;;
12127;SDS011;6127;57.702;11.904;2023-07-31T07:01:02;8.32;;;3.55;;
12127;SDS011;6127;57.702;11.904;2023-07-31T07:03:28;15.27;;;7.38;;
12127;SDS011;6127;57.702;11.904;2023-07-31T07:05:54;11.57;;;4.43;;
12127;SDS011;6127;57.702;11.904;2023-07-31T07:08:20;12.35;;;10.35;;
12127;SDS011;6127;57.702;11.904;2023-07-31T07:10:46;15.43;;;14.07;;
12127;SDS011;6127;57.702;11.904;2023-07-31T07:13:13;20.67;;;18.95;;
12127;SDS011;6127;57.702;11.904;2023-07-31T07:15:39;13.25;;;7.53;;
12127;SDS011;6127;57.702;11.904;2023-07-31T07:18:05;15.05;;;12.60;;
12127;SDS011;6127;57.702;11.904;2023-07-31T07:20:31;10.38;;;4.05;;
12127;SDS011;6127;57.702;11.904;2023-07-31T07:22:57;13.40;;;10.55;;
12127;SDS011;6127;57.702;11.904;2023-07-31T07:25:23;15.10;;;13.82;;
12127;SDS011;6127;57.702;11.904;2023-07-31T07:27:49;9.68;;;3.95;;
12127;SDS011;6127;57.702;11.904;2023-07-31T07:30:16;12.27;;;4.10;;
12127;SDS011;6127;57.702;11.904;2023-07-31T07:32:42;11.65;;;5.38;;
12127;SDS011;6127;57.702;11.904;2023-07-31T07:35:08;17.95;;;11.35;;
12127;SDS011;6127;57.702;11.904;2023-07-31T07:37:34;9.35;;;4.57;;
12127;SDS011;6127;57.702;11.904;2023-07-31T07:40:00;7.05;;;3.65;;
12127;SDS011;6127;57.702;11.904;2023-07-31T07:42:26;8.48;;;4.10;;
12127;SDS011;6127;57.702;11.904;2023-07-31T07:44:52;10.88;;;3.92;;
12127;SDS011;6127;57.702;11.904;2023-07-31T07:47:18;8.25;;;5.45;;
12127;SDS011;6127;57.702;11.904;2023-07-31T07:49:44;12.65;;;3.45;;
12127;SDS011;6127;57.702;11.904;2023-07-31T07:52:10;10.55;;;3.72;;
12127;SDS011;6127;57.702;11.904;2023-07-31T07:54:36;12.55;;;9.55;;
12127;SDS011;6127;57.702;11.904;2023-07-31T07:57:02;12.27;;;8.32;;
12127;SDS011;6127;57.702;11.904;2023-07-31T07:59:28;12.23;;;7.00;;
12127;SDS011;6127;57.702;11.904;2023-07-31T08:01:54;15.55;;;10.73;;
12127;SDS011;6127;57.702;11.904;2023-07-31T08:04:20;10.13;;;8.52;;
12127;SDS011;6127;57.702;11.904;2023-07-31T08:06:46;8.68;;;3.78;;
12127;SDS011;6127;57.702;11.904;2023-07-31T08:09:12;11.38;;;8.50;;
12127;SDS011;6127;57.702;11.904;2023-07-31T08:11:38;8.95;;;5.53;;
12127;SDS011;6127;57.702;11.904;2023-07-31T08:14:04;8.60;;;7.35;;
12127;SDS011;6127;57.702;11.904;2023-07-31T08:16:30;12.65;;;3.70;;
12127;SDS011;6127;57.702;11.904;2023-07-31T08:18:56;8.90;;;3.95;;
12127;SDS011;6127;57.702;11.904;2023-07-31T08:21:22;28.25;;;26.00;;
12127;SDS011;6127;57.702;11.904;2023-07-31T08:23:48;17.83;;;11.70;;
12127;SDS011;6127;57.702;11.904;2023-07-31T08:26:14;11.65;;;4.93;;
12127;SDS011;6127;57.702;11.904;2023-07-31T08:28:41;11.30;;;9.30;;
12127;SDS011;6127;57.702;11.904;2023-07-31T08:31:07;11.15;;;10.00;;
12127;SDS011;6127;57.702;11.904;2023-07-31T08:33:33;8.25;;;2.80;;
12127;SDS011;6127;57.702;11.904;2023-07-31T08:35:59;17.23;;;13.00;;
12127;SDS011;6127;57.702;11.904;2023-07-31T08:38:26;17.90;;;16.42;;
12127;SDS011;6127;57.702;11.904;2023-07-31T08:40:52;11.65;;;7.45;;
12127;SDS011;6127;57.702;11.904;2023-07-31T08:43:18;12.85;;;8.65;;
12127;SDS011;6127;57.702;11.904;2023-07-31T08:45:46;10.23;;;3.92;;
12127;SDS011;6127;57.702;11.904;2023-07-31T08:48:12;10.73;;;3.60;;
12127;SDS011;6127;57.702;11.904;2023-07-31T08:50:39;6.78;;;2.58;;
12127;SDS011;6127;57.702;11.904;2023-07-31T08:53:05;4.47;;;2.20;;
12127;SDS011;6127;57.702;11.904;2023-07-31T08:55:32;3.63;;;2.65;;
12127;SDS011;6127;57.702;11.904;2023-07-31T08:57:58;5.25;;;2.53;;
12127;SDS011;6127;57.702;11.904;2023-07-31T09:00:25;8.98;;;5.10;;
12127;SDS011;6127;57.702;11.904;2023-07-31T09:03:05;5.28;;;2.20;;
12127;SDS011;6127;57.702;11.904;2023-07-31T09:05:33;4.43;;;1.45;;
12127;SDS011;6127;57.702;11.904;2023-07-31T09:08:01;4.28;;;1.65;;
12127;SDS011;6127;57.702;11.904;2023-07-31T09:10:28;2.35;;;1.50;;
12127;SDS011;6127;57.702;11.904;2023-07-31T09:12:54;1.88;;;1.10;;
12127;SDS011;6127;57.702;11.904;2023-07-31T09:15:20;7.80;;;4.38;;
12127;SDS011;6127;57.702;11.904;2023-07-31T09:17:47;13.02;;;12.02;;
12127;SDS011;6127;57.702;11.904;2023-07-31T09:20:14;6.65;;;4.25;;
12127;SDS011;6127;57.702;11.904;2023-07-31T09:22:40;9.95;;;8.93;;
12127;SDS011;6127;57.702;11.904;2023-07-31T09:25:17;5.15;;;4.60;;
12127;SDS011;6127;57.702;11.904;2023-07-31T09:27:52;4.80;;;2.75;;
12127;SDS011;6127;57.702;11.904;2023-07-31T09:30:19;5.43;;;4.53;;
12127;SDS011;6127;57.702;11.904;2023-07-31T09:32:45;2.22;;;1.88;;
12127;SDS011;6127;57.702;11.904;2023-07-31T09:35:13;4.00;;;3.70;;
12127;SDS011;6127;57.702;11.904;2023-07-31T09:37:39;2.50;;;1.20;;
12127;SDS011;6127;57.702;11.904;2023-07-31T09:40:05;3.78;;;1.10;;
12127;SDS011;6127;57.702;11.904;2023-07-31T09:42:32;2.05;;;1.58;;
12127;SDS011;6127;57.702;11.904;2023-07-31T09:45:06;4.38;;;2.50;;
12127;SDS011;6127;57.702;11.904;2023-07-31T09:47:33;3.42;;;2.60;;
12127;SDS011;6127;57.702;11.904;2023-07-31T09:49:59;3.97;;;1.33;;
12127;SDS011;6127;57.702;11.904;2023-07-31T09:52:28;1.98;;;1.83;;
12127;SDS011;6127;57.702;11.904;2023-07-31T09:54:54;3.03;;;1.65;;
12127;SDS011;6127;57.702;11.904;2023-07-31T09:57:21;1.17;;;0.73;;
12127;SDS011;6127;57.702;11.904;2023-07-31T09:59:48;1.65;;;1.45;;
12127;SDS011;6127;57.702;11.904;2023-07-31T10:02:15;12.50;;;11.43;;
12127;SDS011;6127;57.702;11.904;2023-07-31T10:04:46;0.10;;;0.10;;
12127;SDS011;6127;57.702;11.904;2023-07-31T10:07:13;0.10;;;0.10;;
12127;SDS011;6127;57.702;11.904;2023-07-31T10:09:43;0.00;;;0.00;;
12127;SDS011;6127;57.702;11.904;2023-07-31T10:12:09;0.00;;;0.00;;
12127;SDS011;6127;57.702;11.904;2023-07-31T10:14:36;0.00;;;0.00;;
12127;SDS011;6127;57.702;11.904;2023-07-31T10:17:03;0.10;;;0.10;;
12127;SDS011;6127;57.702;11.904;2023-07-31T10:19:30;0.10;;;0.10;;
12127;SDS011;6127;57.702;11.904;2023-07-31T10:21:57;0.63;;;0.63;;
12127;SDS011;6127;57.702;11.904;2023-07-31T10:24:23;1.60;;;0.60;;
12127;SDS011;6127;57.702;11.904;2023-07-31T10:26:50;0.00;;;0.00;;
12127;SDS011;6127;57.702;11.904;2023-07-31T10:29:17;0.10;;;0.10;;
12127;SDS011;6127;57.702;11.904;2023-07-31T10:31:45;0.10;;;0.10;;
12127;SDS011;6127;57.702;11.904;2023-07-31T10:34:11;0.10;;;0.10;;
12127;SDS011;6127;57.702;11.904;2023-07-31T10:36:37;8.75;;;6.90;;
12127;SDS011;6127;57.702;11.904;2023-07-31T10:39:04;0.10;;;0.10;;
12127;SDS011;6127;57.702;11.904;2023-07-31T10:41:30;0.00;;;0.00;;
12127;SDS011;6127;57.702;11.904;2023-07-31T10:43:57;0.00;;;0.00;;
12127;SDS011;6127;57.702;11.904;2023-07-31T10:46:23;0.08;;;0.08;;
12127;SDS011;6127;57.702;11.904;2023-07-31T10:48:53;0.10;;;0.10;;
12127;SDS011;6127;57.702;11.904;2023-07-31T10:51:22;10.93;;;9.25;;
12127;SDS011;6127;57.702;11.904;2023-07-31T10:53:48;0.10;;;0.10;;
12127;SDS011;6127;57.702;11.904;2023-07-31T10:56:16;0.20;;;0.20;;
12127;SDS011;6127;57.702;11.904;2023-07-31T10:58:47;0.10;;;0.10;;
12127;SDS011;6127;57.702;11.904;2023-07-31T11:01:25;0.10;;;0.10;;
12127;SDS011;6127;57.702;11.904;2023-07-31T11:04:11;0.00;;;0.00;;
12127;SDS011;6127;57.702;11.904;2023-07-31T11:06:38;0.00;;;0.00;;
12127;SDS011;6127;57.702;11.904;2023-07-31T11:09:04;0.00;;;0.00;;
12127;SDS011;6127;57.702;11.904;2023-07-31T11:11:31;0.20;;;0.20;;
12127;SDS011;6127;57.702;11.904;2023-07-31T11:13:59;0.20;;;0.20;;
12127;SDS011;6127;57.702;11.904;2023-07-31T11:16:25;0.10;;;0.10;;
12127;SDS011;6127;57.702;11.904;2023-07-31T11:18:52;0.10;;;0.10;;
12127;SDS011;6127;57.702;11.904;2023-07-31T11:21:19;0.10;;;0.10;;
12127;SDS011;6127;57.702;11.904;2023-07-31T11:23:46;0.00;;;0.00;;
12127;SDS011;6127;57.702;11.904;2023-07-31T11:26:12;0.00;;;0.00;;
12127;SDS011;6127;57.702;11.904;2023-07-31T11:28:38;0.10;;;0.10;;
12127;SDS011;6127;57.702;11.904;2023-07-31T11:31:08;0.10;;;0.10;;
12127;SDS011;6127;57.702;11.904;2023-07-31T11:33:34;0.05;;;0.05;;
12127;SDS011;6127;57.702;11.904;2023-07-31T11:36:00;0.10;;;0.10;;
12127;SDS011;6127;57.702;11.904;2023-07-31T11:38:27;0.08;;;0.08;;
12127;SDS011;6127;57.702;11.904;2023-07-31T11:40:54;0.20;;;0.20;;
12127;SDS011;6127;57.702;11.904;2023-07-31T11:43:21;0.08;;;0.08;;
12127;SDS011;6127;57.702;11.904;2023-07-31T11:45:54;0.10;;;0.10;;
12127;SDS011;6127;57.702;11.904;2023-07-31T11:48:21;0.00;;;0.00;;
12127;SDS011;6127;57.702;11.904;2023-07-31T11:50:49;0.10;;;0.10;;
12127;SDS011;6127;57.702;11.904;2023-07-31T11:53:15;0.10;;;0.10;;
12127;SDS011;6127;57.702;11.904;2023-07-31T11:55:42;0.00;;;0.00;;
12127;SDS011;6127;57.702;11.904;2023-07-31T11:58:09;0.10;;;0.10;;
12127;SDS011;6127;57.702;11.904;2023-07-31T12:00:35;0.10;;;0.10;;
12127;SDS011;6127;57.702;11.904;2023-07-31T12:03:01;0.10;;;0.10;;
12127;SDS011;6127;57.702;11.904;2023-07-31T12:05:27;0.10;;;0.10;;
12127;SDS011;6127;57.702;11.904;2023-07-31T12:07:54;0.00;;;0.00;;
12127;SDS011;6127;57.702;11.904;2023-07-31T12:10:27;0.00;;;0.00;;
12127;SDS011;6127;57.702;11.904;2023-07-31T12:13:00;0.05;;;0.05;;
12127;SDS011;6127;57.702;11.904;2023-07-31T12:15:45;0.00;;;0.00;;
12127;SDS011;6127;57.702;11.904;2023-07-31T12:18:12;0.00;;;0.00;;
12127;SDS011;6127;57.702;11.904;2023-07-31T12:20:43;0.08;;;0.08;;
12127;SDS011;6127;57.702;11.904;2023-07-31T12:23:12;0.00;;;0.00;;
12127;SDS011;6127;57.702;11.904;2023-07-31T12:25:39;0.10;;;0.10;;
12127;SDS011;6127;57.702;11.904;2023-07-31T12:28:05;0.10;;;0.10;;
12127;SDS011;6127;57.702;11.904;2023-07-31T12:30:36;0.10;;;0.10;;
12127;SDS011;6127;57.702;11.904;2023-07-31T12:33:03;0.10;;;0.10;;
12127;SDS011;6127;57.702;11.904;2023-07-31T12:35:36;0.10;;;0.10;;
12127;SDS011;6127;57.702;11.904;2023-07-31T12:38:03;0.10;;;0.10;;
12127;SDS011;6127;57.702;11.904;2023-07-31T12:40:29;0.10;;;0.10;;
12127;SDS011;6127;57.702;11.904;2023-07-31T12:42:55;0.10;;;0.10;;
12127;SDS011;6127;57.702;11.904;2023-07-31T12:45:21;0.03;;;0.03;;
12127;SDS011;6127;57.702;11.904;2023-07-31T12:47:49;0.03;;;0.03;;
12127;SDS011;6127;57.702;11.904;2023-07-31T12:50:15;0.10;;;0.10;;
12127;SDS011;6127;57.702;11.904;2023-07-31T12:52:41;0.10;;;0.10;;
12127;SDS011;6127;57.702;11.904;2023-07-31T12:55:07;0.03;;;0.03;;
12127;SDS011;6127;57.702;11.904;2023-07-31T12:57:33;0.10;;;0.10;;
12127;SDS011;6127;57.702;11.904;2023-07-31T12:59:59;0.00;;;0.00;;
12127;SDS011;6127;57.702;11.904;2023-07-31T13:02:25;0.10;;;0.10;;
12127;SDS011;6127;57.702;11.904;2023-07-31T13:04:52;0.10;;;0.10;;
12127;SDS011;6127;57.702;11.904;2023-07-31T13:07:19;0.03;;;0.03;;
12127;SDS011;6127;57.702;11.904;2023-07-31T13:09:45;0.10;;;0.10;;
12127;SDS011;6127;57.702;11.904;2023-07-31T13:12:13;0.10;;;0.10;;
12127;SDS011;6127;57.702;11.904;2023-07-31T13:14:39;0.10;;;0.10;;
12127;SDS011;6127;57.702;11.904;2023-07-31T13:17:05;0.10;;;0.10;;
12127;SDS011;6127;57.702;11.904;2023-07-31T13:19:31;0.10;;;0.10;;
12127;SDS011;6127;57.702;11.904;2023-07-31T13:21:57;0.10;;;0.10;;
12127;SDS011;6127;57.702;11.904;2023-07-31T13:24:23;0.00;;;0.00;;
12127;SDS011;6127;57.702;11.904;2023-07-31T13:26:49;0.10;;;0.10;;
12127;SDS011;6127;57.702;11.904;2023-07-31T13:29:15;0.08;;;0.08;;
12127;SDS011;6127;57.702;11.904;2023-07-31T13:31:41;0.10;;;0.10;;
12127;SDS011;6127;57.702;11.904;2023-07-31T13:34:07;0.10;;;0.10;;
12127;SDS011;6127;57.702;11.904;2023-07-31T13:36:33;0.10;;;0.10;;
12127;SDS011;6127;57.702;11.904;2023-07-31T13:38:59;0.10;;;0.10;;
12127;SDS011;6127;57.702;11.904;2023-07-31T13:41:26;0.10;;;0.10;;
12127;SDS011;6127;57.702;11.904;2023-07-31T13:43:52;0.00;;;0.00;;
12127;SDS011;6127;57.702;11.904;2023-07-31T13:46:18;0.17;;;0.17;;
12127;SDS011;6127;57.702;11.904;2023-07-31T13:48:44;0.20;;;0.20;;
12127;SDS011;6127;57.702;11.904;2023-07-31T13:51:10;0.10;;;0.10;;
12127;SDS011;6127;57.702;11.904;2023-07-31T13:53:36;0.10;;;0.10;;
12127;SDS011;6127;57.702;11.904;2023-07-31T13:56:02;0.10;;;0.10;;
12127;SDS011;6127;57.702;11.904;2023-07-31T13:58:28;0.10;;;0.10;;
12127;SDS011;6127;57.702;11.904;2023-07-31T14:00:54;0.10;;;0.10;;
12127;SDS011;6127;57.702;11.904;2023-07-31T14:03:20;0.10;;;0.10;;
12127;SDS011;6127;57.702;11.904;2023-07-31T14:05:46;0.40;;;0.30;;
12127;SDS011;6127;57.702;11.904;2023-07-31T14:08:12;1.15;;;0.55;;
12127;SDS011;6127;57.702;11.904;2023-07-31T14:10:38;0.10;;;0.10;;
12127;SDS011;6127;57.702;11.904;2023-07-31T14:13:04;0.08;;;0.08;;
12127;SDS011;6127;57.702;11.904;2023-07-31T14:15:30;2.17;;;1.00;;
12127;SDS011;6127;57.702;11.904;2023-07-31T14:17:57;0.10;;;0.10;;
12127;SDS011;6127;57.702;11.904;2023-07-31T14:20:23;0.10;;;0.10;;
12127;SDS011;6127;57.702;11.904;2023-07-31T14:22:49;2.33;;;1.60;;
12127;SDS011;6127;57.702;11.904;2023-07-31T14:25:15;2.75;;;1.77;;
12127;SDS011;6127;57.702;11.904;2023-07-31T14:27:41;3.88;;;2.10;;
12127;SDS011;6127;57.702;11.904;2023-07-31T14:30:07;5.38;;;2.75;;
12127;SDS011;6127;57.702;11.904;2023-07-31T14:32:33;6.68;;;1.83;;
12127;SDS011;6127;57.702;11.904;2023-07-31T14:34:59;6.80;;;1.92;;
12127;SDS011;6127;57.702;11.904;2023-07-31T14:37:25;5.05;;;1.70;;
12127;SDS011;6127;57.702;11.904;2023-07-31T14:39:52;4.43;;;1.67;;
12127;SDS011;6127;57.702;11.904;2023-07-31T14:42:18;4.40;;;1.77;;
12127;SDS011;6127;57.702;11.904;2023-07-31T14:44:44;5.95;;;5.70;;
12127;SDS011;6127;57.702;11.904;2023-07-31T14:47:12;6.03;;;1.50;;
12127;SDS011;6127;57.702;11.904;2023-07-31T14:49:38;5.20;;;1.50;;